sensor_id;sensor_type;location;lat;lon;timestamp;temperature;humidity
24103;DHT22;12278;53.058;9.028;2024-01-07T00:01:47;0.30;99.90
24103;DHT22;12278;53.058;9.028;2024-01-07T00:05:48;0.30;99.90
24103;DHT22;12278;53.058;9.028;2024-01-07T00:09:49;0.20;99.90
24103;DHT22;12278;53.058;9.028;2024-01-07T00:13:49;0.20;99.90
24103;DHT22;12278;53.058;9.028;2024-01-07T00:17:50;0.20;99.90
24103;DHT22;12278;53.058;9.028;2024-01-07T00:21:50;0.20;99.90
24103;DHT22;12278;53.058;9.028;2024-01-07T00:25:51;0.10;99.90
24103;DHT22;12278;53.058;9.028;2024-01-07T00:29:51;0.20;99.90
24103;DHT22;12278;53.058;9.028;2024-01-07T00:33:52;0.10;99.90
24103;DHT22;12278;53.058;9.028;2024-01-07T00:37:52;0.00;99.90
24103;DHT22;12278;53.058;9.028;2024-01-07T00:41:53;0.00;99.90
24103;DHT22;12278;53.058;9.028;2024-01-07T00:45:53;0.00;99.90
24103;DHT22;12278;53.058;9.028;2024-01-07T00:49:54;-0.10;99.90
24103;DHT22;12278;53.058;9.028;2024-01-07T00:53:54;-0.10;99.90
24103;DHT22;12278;53.058;9.028;2024-01-07T00:57:55;0.00;99.90
24103;DHT22;12278;53.058;9.028;2024-01-07T01:01:55;-0.10;99.90
24103;DHT22;12278;53.058;9.028;2024-01-07T01:05:56;-0.10;99.90
24103;DHT22;12278;53.058;9.028;2024-01-07T01:09:56;-0.30;99.90
24103;DHT22;12278;53.058;9.028;2024-01-07T01:13:57;-0.20;99.90
24103;DHT22;12278;53.058;9.028;2024-01-07T01:17:57;-0.20;99.90
24103;DHT22;12278;53.058;9.028;2024-01-07T01:21:58;-0.20;99.90
24103;DHT22;12278;53.058;9.028;2024-01-07T01:25:59;-0.30;99.90
24103;DHT22;12278;53.058;9.028;2024-01-07T01:29:59;-0.40;99.90
24103;DHT22;12278;53.058;9.028;2024-01-07T01:34:00;-0.50;99.90
24103;DHT22;12278;53.058;9.028;2024-01-07T01:38:00;-0.50;99.90
24103;DHT22;12278;53.058;9.028;2024-01-07T01:42:02;-0.50;99.90
24103;DHT22;12278;53.058;9.028;2024-01-07T01:46:02;-0.50;99.90
24103;DHT22;12278;53.058;9.028;2024-01-07T01:50:03;-0.50;99.90
24103;DHT22;12278;53.058;9.028;2024-01-07T01:54:04;-0.50;99.90
24103;DHT22;12278;53.058;9.028;2024-01-07T01:58:05;-0.50;99.90
24103;DHT22;12278;53.058;9.028;2024-01-07T02:02:06;-0.50;99.90
24103;DHT22;12278;53.058;9.028;2024-01-07T02:06:06;-0.50;99.90
24103;DHT22;12278;53.058;9.028;2024-01-07T02:10:07;-0.50;99.90
24103;DHT22;12278;53.058;9.028;2024-01-07T02:14:08;-0.50;99.90
24103;DHT22;12278;53.058;9.028;2024-01-07T02:18:08;-0.60;99.90
24103;DHT22;12278;53.058;9.028;2024-01-07T02:22:09;-0.40;99.90
24103;DHT22;12278;53.058;9.028;2024-01-07T02:26:09;-0.50;99.90
24103;DHT22;12278;53.058;9.028;2024-01-07T02:30:10;-0.50;99.90
24103;DHT22;12278;53.058;9.028;2024-01-07T02:34:10;-0.40;99.90
24103;DHT22;12278;53.058;9.028;2024-01-07T02:38:11;-0.40;99.90
24103;DHT22;12278;53.058;9.028;2024-01-07T02:42:11;-0.50;99.90
24103;DHT22;12278;53.058;9.028;2024-01-07T02:46:13;-0.40;99.90
24103;DHT22;12278;53.058;9.028;2024-01-07T02:50:14;-0.40;99.90
24103;DHT22;12278;53.058;9.028;2024-01-07T02:54:16;-0.40;99.90
24103;DHT22;12278;53.058;9.028;2024-01-07T02:58:17;-0.40;99.90
24103;DHT22;12278;53.058;9.028;2024-01-07T03:02:17;-0.40;99.90
24103;DHT22;12278;53.058;9.028;2024-01-07T03:06:18;-0.40;99.90
24103;DHT22;12278;53.058;9.028;2024-01-07T03:10:18;-0.40;99.90
24103;DHT22;12278;53.058;9.028;2024-01-07T03:14:19;-0.40;99.90
24103;DHT22;12278;53.058;9.028;2024-01-07T03:18:21;-0.40;99.90
24103;DHT22;12278;53.058;9.028;2024-01-07T03:22:22;-0.40;99.90
24103;DHT22;12278;53.058;9.028;2024-01-07T03:26:24;-0.40;99.90
24103;DHT22;12278;53.058;9.028;2024-01-07T03:30:25;-0.40;99.90
24103;DHT22;12278;53.058;9.028;2024-01-07T03:34:25;-0.40;99.90
24103;DHT22;12278;53.058;9.028;2024-01-07T03:38:26;-0.40;99.90
24103;DHT22;12278;53.058;9.028;2024-01-07T03:42:26;-0.40;99.90
24103;DHT22;12278;53.058;9.028;2024-01-07T03:46:27;-0.30;99.90
24103;DHT22;12278;53.058;9.028;2024-01-07T03:50:27;-0.40;99.90
24103;DHT22;12278;53.058;9.028;2024-01-07T03:54:28;-0.40;99.90
24103;DHT22;12278;53.058;9.028;2024-01-07T03:58:28;-0.40;99.90
24103;DHT22;12278;53.058;9.028;2024-01-07T04:02:29;-0.40;99.90
24103;DHT22;12278;53.058;9.028;2024-01-07T04:06:29;-0.40;99.90
24103;DHT22;12278;53.058;9.028;2024-01-07T04:10:30;-0.40;99.90
24103;DHT22;12278;53.058;9.028;2024-01-07T04:14:30;-0.40;99.90
24103;DHT22;12278;53.058;9.028;2024-01-07T04:18:33;-0.40;99.90
24103;DHT22;12278;53.058;9.028;2024-01-07T04:22:34;-0.50;99.90
24103;DHT22;12278;53.058;9.028;2024-01-07T04:26:34;-0.50;99.90
24103;DHT22;12278;53.058;9.028;2024-01-07T04:30:35;-0.50;99.90
24103;DHT22;12278;53.058;9.028;2024-01-07T04:34:35;-0.50;99.90
24103;DHT22;12278;53.058;9.028;2024-01-07T04:38:36;-0.60;99.90
24103;DHT22;12278;53.058;9.028;2024-01-07T04:42:37;-0.70;99.90
24103;DHT22;12278;53.058;9.028;2024-01-07T04:46:38;-0.70;99.90
24103;DHT22;12278;53.058;9.028;2024-01-07T04:50:41;-0.80;99.90
24103;DHT22;12278;53.058;9.028;2024-01-07T04:54:42;-0.70;99.90
24103;DHT22;12278;53.058;9.028;2024-01-07T04:58:43;-0.80;99.90
24103;DHT22;12278;53.058;9.028;2024-01-07T05:02:43;-0.80;99.90
24103;DHT22;12278;53.058;9.028;2024-01-07T05:06:44;-0.90;99.90
24103;DHT22;12278;53.058;9.028;2024-01-07T05:10:45;-1.00;99.90
24103;DHT22;12278;53.058;9.028;2024-01-07T05:14:45;-1.10;99.90
24103;DHT22;12278;53.058;9.028;2024-01-07T05:18:46;-1.10;99.90
24103;DHT22;12278;53.058;9.028;2024-01-07T05:22:48;-1.10;99.90
24103;DHT22;12278;53.058;9.028;2024-01-07T05:26:49;-1.00;99.90
24103;DHT22;12278;53.058;9.028;2024-01-07T05:30:49;-1.10;99.90
24103;DHT22;12278;53.058;9.028;2024-01-07T05:34:50;-1.20;99.90
24103;DHT22;12278;53.058;9.028;2024-01-07T05:38:50;-1.20;99.90
24103;DHT22;12278;53.058;9.028;2024-01-07T05:42:51;-1.30;99.90
24103;DHT22;12278;53.058;9.028;2024-01-07T05:46:51;-1.30;99.90
24103;DHT22;12278;53.058;9.028;2024-01-07T05:50:52;-1.30;99.90
24103;DHT22;12278;53.058;9.028;2024-01-07T05:54:53;-1.20;99.90
24103;DHT22;12278;53.058;9.028;2024-01-07T05:58:53;-1.10;99.90
24103;DHT22;12278;53.058;9.028;2024-01-07T06:02:54;-1.10;99.90
24103;DHT22;12278;53.058;9.028;2024-01-07T06:06:54;-1.00;99.90
24103;DHT22;12278;53.058;9.028;2024-01-07T06:10:55;-1.00;99.90
24103;DHT22;12278;53.058;9.028;2024-01-07T06:14:56;-0.90;99.90
24103;DHT22;12278;53.058;9.028;2024-01-07T06:18:56;-0.90;99.90
24103;DHT22;12278;53.058;9.028;2024-01-07T06:22:57;-0.80;99.90
24103;DHT22;12278;53.058;9.028;2024-01-07T06:26:58;-0.90;99.90
24103;DHT22;12278;53.058;9.028;2024-01-07T06:30:58;-0.90;99.90
24103;DHT22;12278;53.058;9.028;2024-01-07T06:34:59;-0.80;99.90
24103;DHT22;12278;53.058;9.028;2024-01-07T06:38:59;-0.80;99.90
24103;DHT22;12278;53.058;9.028;2024-01-07T06:43:00;-0.80;99.90
24103;DHT22;12278;53.058;9.028;2024-01-07T06:47:00;-0.90;99.90
24103;DHT22;12278;53.058;9.028;2024-01-07T06:51:01;-0.80;99.90
24103;DHT22;12278;53.058;9.028;2024-01-07T06:55:01;-0.90;99.90
24103;DHT22;12278;53.058;9.028;2024-01-07T06:59:02;-0.90;99.90
24103;DHT22;12278;53.058;9.028;2024-01-07T07:03:02;-1.10;99.90
24103;DHT22;12278;53.058;9.028;2024-01-07T07:07:03;-0.90;99.90
24103;DHT22;12278;53.058;9.028;2024-01-07T07:11:03;-0.90;99.90
24103;DHT22;12278;53.058;9.028;2024-01-07T07:15:04;-1.00;99.90
24103;DHT22;12278;53.058;9.028;2024-01-07T07:19:05;-1.00;99.90
24103;DHT22;12278;53.058;9.028;2024-01-07T07:23:05;-0.90;99.90
24103;DHT22;12278;53.058;9.028;2024-01-07T07:27:06;-0.90;99.90
24103;DHT22;12278;53.058;9.028;2024-01-07T07:31:06;-0.90;99.90
24103;DHT22;12278;53.058;9.028;2024-01-07T07:35:07;-0.90;99.90
24103;DHT22;12278;53.058;9.028;2024-01-07T07:39:08;-0.80;99.90
24103;DHT22;12278;53.058;9.028;2024-01-07T07:43:09;-0.80;99.90
24103;DHT22;12278;53.058;9.028;2024-01-07T07:47:10;-0.90;99.90
24103;DHT22;12278;53.058;9.028;2024-01-07T07:51:12;-0.80;99.90
24103;DHT22;12278;53.058;9.028;2024-01-07T07:55:12;-0.70;99.90
24103;DHT22;12278;53.058;9.028;2024-01-07T07:59:13;-0.50;99.90
24103;DHT22;12278;53.058;9.028;2024-01-07T08:03:13;-0.40;99.90
24103;DHT22;12278;53.058;9.028;2024-01-07T08:07:14;-0.30;99.90
24103;DHT22;12278;53.058;9.028;2024-01-07T08:11:14;-0.20;99.90
24103;DHT22;12278;53.058;9.028;2024-01-07T08:15:15;-0.10;99.90
24103;DHT22;12278;53.058;9.028;2024-01-07T08:19:15;-0.10;99.90
24103;DHT22;12278;53.058;9.028;2024-01-07T08:23:16;0.00;99.90
24103;DHT22;12278;53.058;9.028;2024-01-07T08:27:16;0.00;99.90
24103;DHT22;12278;53.058;9.028;2024-01-07T08:31:17;0.10;99.90
24103;DHT22;12278;53.058;9.028;2024-01-07T08:35:18;0.10;99.90
24103;DHT22;12278;53.058;9.028;2024-01-07T08:39:18;0.20;99.90
24103;DHT22;12278;53.058;9.028;2024-01-07T08:43:19;0.20;99.90
24103;DHT22;12278;53.058;9.028;2024-01-07T08:47:19;0.20;99.90
24103;DHT22;12278;53.058;9.028;2024-01-07T08:51:20;0.30;99.90
24103;DHT22;12278;53.058;9.028;2024-01-07T08:55:20;0.30;99.90
24103;DHT22;12278;53.058;9.028;2024-01-07T08:59:21;0.30;99.90
24103;DHT22;12278;53.058;9.028;2024-01-07T09:03:21;0.40;99.90
24103;DHT22;12278;53.058;9.028;2024-01-07T09:07:22;0.30;99.90
24103;DHT22;12278;53.058;9.028;2024-01-07T09:11:22;0.30;99.90
24103;DHT22;12278;53.058;9.028;2024-01-07T09:15:23;0.30;99.90
24103;DHT22;12278;53.058;9.028;2024-01-07T09:19:24;0.10;99.90
24103;DHT22;12278;53.058;9.028;2024-01-07T09:23:24;0.20;99.90
24103;DHT22;12278;53.058;9.028;2024-01-07T09:27:25;0.30;99.90
24103;DHT22;12278;53.058;9.028;2024-01-07T09:31:25;0.30;99.90
24103;DHT22;12278;53.058;9.028;2024-01-07T09:35:26;0.30;99.90
24103;DHT22;12278;53.058;9.028;2024-01-07T09:39:27;0.30;99.90
24103;DHT22;12278;53.058;9.028;2024-01-07T09:43:28;0.30;99.90
24103;DHT22;12278;53.058;9.028;2024-01-07T09:47:29;0.60;99.90
24103;DHT22;12278;53.058;9.028;2024-01-07T09:51:29;1.10;99.90
24103;DHT22;12278;53.058;9.028;2024-01-07T09:55:33;1.70;99.90
24103;DHT22;12278;53.058;9.028;2024-01-07T09:59:37;2.50;99.90
24103;DHT22;12278;53.058;9.028;2024-01-07T10:03:39;3.30;99.90
24103;DHT22;12278;53.058;9.028;2024-01-07T10:07:39;4.10;99.90
24103;DHT22;12278;53.058;9.028;2024-01-07T10:11:40;4.50;99.90
24103;DHT22;12278;53.058;9.028;2024-01-07T10:15:41;4.70;99.90
24103;DHT22;12278;53.058;9.028;2024-01-07T10:19:42;5.30;99.90
24103;DHT22;12278;53.058;9.028;2024-01-07T10:23:43;5.90;99.90
24103;DHT22;12278;53.058;9.028;2024-01-07T10:27:44;5.50;99.90
24103;DHT22;12278;53.058;9.028;2024-01-07T10:31:44;5.60;99.90
24103;DHT22;12278;53.058;9.028;2024-01-07T10:35:51;5.60;99.90
24103;DHT22;12278;53.058;9.028;2024-01-07T10:39:53;5.50;99.90
24103;DHT22;12278;53.058;9.028;2024-01-07T10:43:57;5.70;99.90
24103;DHT22;12278;53.058;9.028;2024-01-07T10:47:59;6.70;99.90
24103;DHT22;12278;53.058;9.028;2024-01-07T10:52:06;6.70;99.90
24103;DHT22;12278;53.058;9.028;2024-01-07T10:56:08;6.70;99.90
24103;DHT22;12278;53.058;9.028;2024-01-07T11:00:21;6.40;99.90
24103;DHT22;12278;53.058;9.028;2024-01-07T11:04:23;6.60;99.90
24103;DHT22;12278;53.058;9.028;2024-01-07T11:09:03;6.90;99.90
24103;DHT22;12278;53.058;9.028;2024-01-07T11:12:56;7.30;99.90
24103;DHT22;12278;53.058;9.028;2024-01-07T11:16:58;6.20;99.90
24103;DHT22;12278;53.058;9.028;2024-01-07T11:20:59;5.70;99.90
24103;DHT22;12278;53.058;9.028;2024-01-07T11:25:01;6.50;99.90
24103;DHT22;12278;53.058;9.028;2024-01-07T11:29:03;7.10;99.90
24103;DHT22;12278;53.058;9.028;2024-01-07T11:33:03;7.10;99.90
24103;DHT22;12278;53.058;9.028;2024-01-07T11:37:04;6.70;99.90
24103;DHT22;12278;53.058;9.028;2024-01-07T11:41:06;6.80;99.90
24103;DHT22;12278;53.058;9.028;2024-01-07T11:45:08;6.00;99.90
24103;DHT22;12278;53.058;9.028;2024-01-07T11:49:11;5.60;99.90
24103;DHT22;12278;53.058;9.028;2024-01-07T11:53:12;5.80;99.90
24103;DHT22;12278;53.058;9.028;2024-01-07T11:57:13;5.40;99.90
24103;DHT22;12278;53.058;9.028;2024-01-07T12:01:17;5.80;99.90
24103;DHT22;12278;53.058;9.028;2024-01-07T12:05:18;5.70;99.90
24103;DHT22;12278;53.058;9.028;2024-01-07T12:09:19;6.40;99.90
24103;DHT22;12278;53.058;9.028;2024-01-07T12:13:19;6.20;99.90
24103;DHT22;12278;53.058;9.028;2024-01-07T12:17:20;6.70;99.90
24103;DHT22;12278;53.058;9.028;2024-01-07T12:21:20;6.10;99.90
24103;DHT22;12278;53.058;9.028;2024-01-07T12:25:24;5.50;99.90
24103;DHT22;12278;53.058;9.028;2024-01-07T12:29:24;5.20;99.90
24103;DHT22;12278;53.058;9.028;2024-01-07T12:33:26;4.40;99.90
24103;DHT22;12278;53.058;9.028;2024-01-07T12:37:27;3.90;99.90
24103;DHT22;12278;53.058;9.028;2024-01-07T12:41:28;3.80;99.90
24103;DHT22;12278;53.058;9.028;2024-01-07T12:45:29;3.60;99.90
24103;DHT22;12278;53.058;9.028;2024-01-07T12:49:29;3.40;99.90
24103;DHT22;12278;53.058;9.028;2024-01-07T12:53:30;3.30;99.90
24103;DHT22;12278;53.058;9.028;2024-01-07T12:57:30;3.00;99.90
24103;DHT22;12278;53.058;9.028;2024-01-07T13:01:31;3.40;99.90
24103;DHT22;12278;53.058;9.028;2024-01-07T13:05:32;3.70;99.90
24103;DHT22;12278;53.058;9.028;2024-01-07T13:09:32;3.90;99.90
24103;DHT22;12278;53.058;9.028;2024-01-07T13:13:34;4.00;99.90
24103;DHT22;12278;53.058;9.028;2024-01-07T13:17:34;3.80;99.90
24103;DHT22;12278;53.058;9.028;2024-01-07T13:21:35;4.10;99.90
24103;DHT22;12278;53.058;9.028;2024-01-07T13:25:35;3.60;99.90
24103;DHT22;12278;53.058;9.028;2024-01-07T13:29:36;3.60;99.90
24103;DHT22;12278;53.058;9.028;2024-01-07T13:33:36;3.60;99.90
24103;DHT22;12278;53.058;9.028;2024-01-07T13:37:37;3.50;99.90
24103;DHT22;12278;53.058;9.028;2024-01-07T13:41:37;3.30;99.90
24103;DHT22;12278;53.058;9.028;2024-01-07T13:45:38;3.50;99.90
24103;DHT22;12278;53.058;9.028;2024-01-07T13:49:38;3.10;99.90
24103;DHT22;12278;53.058;9.028;2024-01-07T13:53:39;3.50;99.90
24103;DHT22;12278;53.058;9.028;2024-01-07T13:57:39;3.40;99.90
24103;DHT22;12278;53.058;9.028;2024-01-07T14:01:41;2.80;99.90
24103;DHT22;12278;53.058;9.028;2024-01-07T14:05:43;2.20;99.90
24103;DHT22;12278;53.058;9.028;2024-01-07T14:09:43;1.70;99.90
24103;DHT22;12278;53.058;9.028;2024-01-07T14:13:44;1.30;99.90
24103;DHT22;12278;53.058;9.028;2024-01-07T14:17:46;1.10;99.90
24103;DHT22;12278;53.058;9.028;2024-01-07T14:21:46;0.90;99.90
24103;DHT22;12278;53.058;9.028;2024-01-07T14:25:47;0.70;99.90
24103;DHT22;12278;53.058;9.028;2024-01-07T14:29:47;0.70;99.90
24103;DHT22;12278;53.058;9.028;2024-01-07T14:33:48;0.70;99.90
24103;DHT22;12278;53.058;9.028;2024-01-07T14:37:50;0.70;99.90
24103;DHT22;12278;53.058;9.028;2024-01-07T14:41:50;1.40;99.90
24103;DHT22;12278;53.058;9.028;2024-01-07T14:45:52;2.00;99.90
24103;DHT22;12278;53.058;9.028;2024-01-07T14:49:52;1.80;99.90
24103;DHT22;12278;53.058;9.028;2024-01-07T14:53:53;1.60;99.90
24103;DHT22;12278;53.058;9.028;2024-01-07T14:57:54;1.10;99.90
24103;DHT22;12278;53.058;9.028;2024-01-07T15:01:55;0.50;99.90
24103;DHT22;12278;53.058;9.028;2024-01-07T15:05:56;0.00;99.90
24103;DHT22;12278;53.058;9.028;2024-01-07T15:09:56;-0.20;99.90
24103;DHT22;12278;53.058;9.028;2024-01-07T15:13:58;-0.20;99.90
24103;DHT22;12278;53.058;9.028;2024-01-07T15:18:00;-0.20;99.90
24103;DHT22;12278;53.058;9.028;2024-01-07T15:22:03;-0.40;99.90
24103;DHT22;12278;53.058;9.028;2024-01-07T15:26:04;-0.60;99.90
24103;DHT22;12278;53.058;9.028;2024-01-07T15:30:05;-0.80;99.90
24103;DHT22;12278;53.058;9.028;2024-01-07T15:34:07;-0.90;99.90
24103;DHT22;12278;53.058;9.028;2024-01-07T15:38:08;-1.00;99.90
24103;DHT22;12278;53.058;9.028;2024-01-07T15:42:08;-1.20;99.90
24103;DHT22;12278;53.058;9.028;2024-01-07T15:46:09;-1.30;99.90
24103;DHT22;12278;53.058;9.028;2024-01-07T15:50:09;-1.30;99.90
24103;DHT22;12278;53.058;9.028;2024-01-07T15:54:13;-1.40;99.90
24103;DHT22;12278;53.058;9.028;2024-01-07T15:58:17;-1.30;99.90
24103;DHT22;12278;53.058;9.028;2024-01-07T16:02:17;-1.40;99.90
24103;DHT22;12278;53.058;9.028;2024-01-07T16:06:18;-1.50;99.90
24103;DHT22;12278;53.058;9.028;2024-01-07T16:10:18;-1.50;99.90
24103;DHT22;12278;53.058;9.028;2024-01-07T16:14:19;-1.60;99.90
24103;DHT22;12278;53.058;9.028;2024-01-07T16:18:25;-1.70;99.90
24103;DHT22;12278;53.058;9.028;2024-01-07T16:22:26;-1.80;99.90
24103;DHT22;12278;53.058;9.028;2024-01-07T16:26:27;-1.80;99.90
24103;DHT22;12278;53.058;9.028;2024-01-07T16:30:28;-1.80;99.90
24103;DHT22;12278;53.058;9.028;2024-01-07T16:34:28;-1.90;99.90
24103;DHT22;12278;53.058;9.028;2024-01-07T16:38:29;-1.90;99.90
24103;DHT22;12278;53.058;9.028;2024-01-07T16:42:31;-2.00;99.90
24103;DHT22;12278;53.058;9.028;2024-01-07T16:46:32;-2.00;99.90
24103;DHT22;12278;53.058;9.028;2024-01-07T16:50:32;-2.00;99.90
24103;DHT22;12278;53.058;9.028;2024-01-07T16:54:33;-2.10;99.90
24103;DHT22;12278;53.058;9.028;2024-01-07T16:58:35;-2.10;99.90
24103;DHT22;12278;53.058;9.028;2024-01-07T17:02:35;-2.10;99.90
24103;DHT22;12278;53.058;9.028;2024-01-07T17:06:36;-2.00;99.90
24103;DHT22;12278;53.058;9.028;2024-01-07T17:10:36;-2.00;99.90
24103;DHT22;12278;53.058;9.028;2024-01-07T17:14:37;-1.90;99.90
24103;DHT22;12278;53.058;9.028;2024-01-07T17:18:37;-1.80;99.90
24103;DHT22;12278;53.058;9.028;2024-01-07T17:22:38;-1.60;99.90
24103;DHT22;12278;53.058;9.028;2024-01-07T17:26:39;-1.60;99.90
24103;DHT22;12278;53.058;9.028;2024-01-07T17:30:40;-1.50;99.90
24103;DHT22;12278;53.058;9.028;2024-01-07T17:34:40;-1.60;99.90
24103;DHT22;12278;53.058;9.028;2024-01-07T17:38:44;-1.80;99.90
24103;DHT22;12278;53.058;9.028;2024-01-07T17:42:44;-1.80;99.90
24103;DHT22;12278;53.058;9.028;2024-01-07T17:46:45;-1.90;99.90
24103;DHT22;12278;53.058;9.028;2024-01-07T17:50:45;-1.90;99.90
24103;DHT22;12278;53.058;9.028;2024-01-07T17:54:46;-2.00;99.90
24103;DHT22;12278;53.058;9.028;2024-01-07T17:58:46;-1.90;99.90
24103;DHT22;12278;53.058;9.028;2024-01-07T18:02:49;-2.10;99.90
24103;DHT22;12278;53.058;9.028;2024-01-07T18:06:50;-2.20;99.90
24103;DHT22;12278;53.058;9.028;2024-01-07T18:10:50;-2.30;99.90
24103;DHT22;12278;53.058;9.028;2024-01-07T18:14:51;-2.30;99.90
24103;DHT22;12278;53.058;9.028;2024-01-07T18:18:52;-2.40;99.90
24103;DHT22;12278;53.058;9.028;2024-01-07T18:22:53;-2.40;99.90
24103;DHT22;12278;53.058;9.028;2024-01-07T18:26:53;-2.40;99.90
24103;DHT22;12278;53.058;9.028;2024-01-07T18:30:56;-2.30;99.90
24103;DHT22;12278;53.058;9.028;2024-01-07T18:34:56;-2.10;99.90
24103;DHT22;12278;53.058;9.028;2024-01-07T18:38:57;-2.00;99.90
24103;DHT22;12278;53.058;9.028;2024-01-07T18:42:57;-1.90;99.90
24103;DHT22;12278;53.058;9.028;2024-01-07T18:47:01;-1.80;99.90
24103;DHT22;12278;53.058;9.028;2024-01-07T18:51:01;-1.80;99.90
24103;DHT22;12278;53.058;9.028;2024-01-07T18:55:02;-1.80;99.90
24103;DHT22;12278;53.058;9.028;2024-01-07T18:59:04;-1.70;99.90
24103;DHT22;12278;53.058;9.028;2024-01-07T19:03:05;-1.70;99.90
24103;DHT22;12278;53.058;9.028;2024-01-07T19:07:05;-1.70;99.90
24103;DHT22;12278;53.058;9.028;2024-01-07T19:11:06;-1.60;99.90
24103;DHT22;12278;53.058;9.028;2024-01-07T19:15:06;-1.50;99.90
24103;DHT22;12278;53.058;9.028;2024-01-07T19:19:07;-1.50;99.90
24103;DHT22;12278;53.058;9.028;2024-01-07T19:23:08;-1.50;99.90
24103;DHT22;12278;53.058;9.028;2024-01-07T19:27:08;-1.50;99.90
24103;DHT22;12278;53.058;9.028;2024-01-07T19:31:09;-1.50;99.90
24103;DHT22;12278;53.058;9.028;2024-01-07T19:35:09;-1.50;99.90
24103;DHT22;12278;53.058;9.028;2024-01-07T19:39:10;-1.40;99.90
24103;DHT22;12278;53.058;9.028;2024-01-07T19:43:12;-1.50;99.90
24103;DHT22;12278;53.058;9.028;2024-01-07T19:47:13;-1.40;99.90
24103;DHT22;12278;53.058;9.028;2024-01-07T19:51:13;-1.40;99.90
24103;DHT22;12278;53.058;9.028;2024-01-07T19:55:15;-1.40;99.90
24103;DHT22;12278;53.058;9.028;2024-01-07T19:59:16;-1.30;99.90
24103;DHT22;12278;53.058;9.028;2024-01-07T20:03:19;-1.30;99.90
24103;DHT22;12278;53.058;9.028;2024-01-07T20:07:20;-1.40;99.90
24103;DHT22;12278;53.058;9.028;2024-01-07T20:11:21;-1.50;99.90
24103;DHT22;12278;53.058;9.028;2024-01-07T20:15:24;-1.60;99.90
24103;DHT22;12278;53.058;9.028;2024-01-07T20:19:24;-1.70;99.90
24103;DHT22;12278;53.058;9.028;2024-01-07T20:23:25;-1.90;99.90
24103;DHT22;12278;53.058;9.028;2024-01-07T20:27:25;-2.00;99.90
24103;DHT22;12278;53.058;9.028;2024-01-07T20:31:26;-2.00;99.90
24103;DHT22;12278;53.058;9.028;2024-01-07T20:35:29;-1.90;99.90
24103;DHT22;12278;53.058;9.028;2024-01-07T20:39:31;-1.80;99.90
24103;DHT22;12278;53.058;9.028;2024-01-07T20:43:32;-1.80;99.90
24103;DHT22;12278;53.058;9.028;2024-01-07T20:47:33;-1.80;99.90
24103;DHT22;12278;53.058;9.028;2024-01-07T20:51:33;-1.80;99.90
24103;DHT22;12278;53.058;9.028;2024-01-07T20:55:34;-1.70;99.90
24103;DHT22;12278;53.058;9.028;2024-01-07T20:59:34;-1.80;99.90
24103;DHT22;12278;53.058;9.028;2024-01-07T21:03:35;-1.80;99.90
24103;DHT22;12278;53.058;9.028;2024-01-07T21:07:36;-1.80;99.90
24103;DHT22;12278;53.058;9.028;2024-01-07T21:11:36;-1.90;99.90
24103;DHT22;12278;53.058;9.028;2024-01-07T21:15:38;-1.90;99.90
24103;DHT22;12278;53.058;9.028;2024-01-07T21:19:39;-1.90;99.90
24103;DHT22;12278;53.058;9.028;2024-01-07T21:23:40;-1.90;99.90
24103;DHT22;12278;53.058;9.028;2024-01-07T21:27:40;-1.80;99.90
24103;DHT22;12278;53.058;9.028;2024-01-07T21:31:42;-1.90;99.90
24103;DHT22;12278;53.058;9.028;2024-01-07T21:35:43;-2.00;99.90
24103;DHT22;12278;53.058;9.028;2024-01-07T21:39:44;-2.00;99.90
24103;DHT22;12278;53.058;9.028;2024-01-07T21:43:45;-1.90;99.90
24103;DHT22;12278;53.058;9.028;2024-01-07T21:47:45;-2.00;99.90
24103;DHT22;12278;53.058;9.028;2024-01-07T21:51:46;-2.00;99.90
24103;DHT22;12278;53.058;9.028;2024-01-07T21:55:46;-1.90;99.90
24103;DHT22;12278;53.058;9.028;2024-01-07T21:59:47;-1.90;99.90
24103;DHT22;12278;53.058;9.028;2024-01-07T22:03:47;-1.90;99.90
24103;DHT22;12278;53.058;9.028;2024-01-07T22:07:48;-1.90;99.90
24103;DHT22;12278;53.058;9.028;2024-01-07T22:11:49;-1.90;99.90
24103;DHT22;12278;53.058;9.028;2024-01-07T22:15:50;-1.90;99.90
24103;DHT22;12278;53.058;9.028;2024-01-07T22:19:51;-1.80;99.90
24103;DHT22;12278;53.058;9.028;2024-01-07T22:23:51;-1.90;99.90
24103;DHT22;12278;53.058;9.028;2024-01-07T22:27:54;-1.80;99.90
24103;DHT22;12278;53.058;9.028;2024-01-07T22:31:54;-1.90;99.90
24103;DHT22;12278;53.058;9.028;2024-01-07T22:35:55;-1.90;99.90
24103;DHT22;12278;53.058;9.028;2024-01-07T22:39:55;-1.90;99.90
24103;DHT22;12278;53.058;9.028;2024-01-07T22:43:56;-1.90;99.90
24103;DHT22;12278;53.058;9.028;2024-01-07T22:47:56;-1.80;99.90
24103;DHT22;12278;53.058;9.028;2024-01-07T22:51:57;-1.90;99.90
24103;DHT22;12278;53.058;9.028;2024-01-07T22:55:58;-1.90;99.90
24103;DHT22;12278;53.058;9.028;2024-01-07T22:59:58;-2.00;99.90
24103;DHT22;12278;53.058;9.028;2024-01-07T23:03:59;-2.00;99.90
24103;DHT22;12278;53.058;9.028;2024-01-07T23:07:59;-2.00;99.90
24103;DHT22;12278;53.058;9.028;2024-01-07T23:12:00;-1.90;99.90
24103;DHT22;12278;53.058;9.028;2024-01-07T23:16:00;-1.80;99.90
24103;DHT22;12278;53.058;9.028;2024-01-07T23:20:01;-1.80;99.90
24103;DHT22;12278;53.058;9.028;2024-01-07T23:24:01;-1.80;99.90
24103;DHT22;12278;53.058;9.028;2024-01-07T23:28:02;-1.80;99.90
24103;DHT22;12278;53.058;9.028;2024-01-07T23:32:03;-1.80;99.90
24103;DHT22;12278;53.058;9.028;2024-01-07T23:36:04;-1.80;99.90
24103;DHT22;12278;53.058;9.028;2024-01-07T23:40:08;-1.80;99.90
24103;DHT22;12278;53.058;9.028;2024-01-07T23:44:09;-1.70;99.90
24103;DHT22;12278;53.058;9.028;2024-01-07T23:48:09;-1.70;99.90
24103;DHT22;12278;53.058;9.028;2024-01-07T23:52:10;-1.70;99.90
24103;DHT22;12278;53.058;9.028;2024-01-07T23:56:10;-1.60;99.90
